sensor_id;sensor_type;location;lat;lon;timestamp;pressure;altitude;pressure_sealevel;temperature;humidity
35151;BME280;55720;51.972;4.624;2022-07-04T00:02:00;101721.31;;;12.97;100.00
35151;BME280;55720;51.972;4.624;2022-07-04T00:04:26;101725.69;;;12.90;100.00
35151;BME280;55720;51.972;4.624;2022-07-04T00:06:51;101745.00;;;12.81;100.00
35151;BME280;55720;51.972;4.624;2022-07-04T00:09:16;101751.66;;;12.80;100.00
35151;BME280;55720;51.972;4.624;2022-07-04T00:11:42;101776.63;;;12.83;100.00
35151;BME280;55720;51.972;4.624;2022-07-04T00:14:07;101798.50;;;12.80;100.00
35151;BME280;55720;51.972;4.624;2022-07-04T00:16:32;101799.31;;;12.72;100.00
35151;BME280;55720;51.972;4.624;2022-07-04T00:18:59;101810.63;;;12.70;100.00
35151;BME280;55720;51.972;4.624;2022-07-04T00:21:25;101815.69;;;12.68;100.00
35151;BME280;55720;51.972;4.624;2022-07-04T00:23:50;101819.25;;;12.69;100.00
35151;BME280;55720;51.972;4.624;2022-07-04T00:26:16;101835.63;;;12.65;100.00
35151;BME280;55720;51.972;4.624;2022-07-04T00:28:42;101847.28;;;12.62;100.00
35151;BME280;55720;51.972;4.624;2022-07-04T00:31:08;101855.34;;;12.59;100.00
35151;BME280;55720;51.972;4.624;2022-07-04T00:33:33;101869.63;;;12.61;100.00
35151;BME280;55720;51.972;4.624;2022-07-04T00:35:59;101869.78;;;12.56;100.00
35151;BME280;55720;51.972;4.624;2022-07-04T00:38:24;101872.06;;;12.54;100.00
35151;BME280;55720;51.972;4.624;2022-07-04T00:40:50;101875.94;;;12.53;100.00
35151;BME280;55720;51.972;4.624;2022-07-04T00:43:23;101887.75;;;12.53;100.00
35151;BME280;55720;51.972;4.624;2022-07-04T00:45:48;101889.22;;;12.51;100.00
35151;BME280;55720;51.972;4.624;2022-07-04T00:48:14;101906.22;;;12.44;100.00
35151;BME280;55720;51.972;4.624;2022-07-04T00:50:41;101908.81;;;12.49;100.00
35151;BME280;55720;51.972;4.624;2022-07-04T00:53:07;101905.56;;;12.47;100.00
35151;BME280;55720;51.972;4.624;2022-07-04T00:55:33;101919.19;;;12.44;100.00
35151;BME280;55720;51.972;4.624;2022-07-04T00:57:58;101940.41;;;12.43;100.00
35151;BME280;55720;51.972;4.624;2022-07-04T01:00:24;101949.31;;;12.49;100.00
35151;BME280;55720;51.972;4.624;2022-07-04T01:02:49;101957.28;;;12.50;100.00
35151;BME280;55720;51.972;4.624;2022-07-04T01:05:15;101976.88;;;12.49;100.00
35151;BME280;55720;51.972;4.624;2022-07-04T01:07:42;101971.22;;;12.54;100.00
35151;BME280;55720;51.972;4.624;2022-07-04T01:10:08;101975.09;;;12.53;100.00
35151;BME280;55720;51.972;4.624;2022-07-04T01:12:34;101975.75;;;12.50;100.00
35151;BME280;55720;51.972;4.624;2022-07-04T01:15:00;101976.22;;;12.43;100.00
35151;BME280;55720;51.972;4.624;2022-07-04T01:17:25;101987.69;;;12.37;100.00
35151;BME280;55720;51.972;4.624;2022-07-04T01:19:51;101982.59;;;12.30;100.00
35151;BME280;55720;51.972;4.624;2022-07-04T01:22:17;102002.06;;;12.33;100.00
35151;BME280;55720;51.972;4.624;2022-07-04T01:24:43;102006.91;;;12.28;100.00
35151;BME280;55720;51.972;4.624;2022-07-04T01:27:09;102008.53;;;12.29;100.00
35151;BME280;55720;51.972;4.624;2022-07-04T01:29:34;102024.53;;;12.27;100.00
35151;BME280;55720;51.972;4.624;2022-07-04T01:32:04;102034.75;;;12.26;100.00
35151;BME280;55720;51.972;4.624;2022-07-04T01:34:29;102036.19;;;12.24;100.00
35151;BME280;55720;51.972;4.624;2022-07-04T01:36:55;102046.72;;;12.22;100.00
35151;BME280;55720;51.972;4.624;2022-07-04T01:39:20;102062.28;;;12.26;100.00
35151;BME280;55720;51.972;4.624;2022-07-04T01:41:45;102060.03;;;12.28;100.00
35151;BME280;55720;51.972;4.624;2022-07-04T01:44:11;102084.31;;;12.26;100.00
35151;BME280;55720;51.972;4.624;2022-07-04T01:46:36;102091.47;;;12.27;100.00
35151;BME280;55720;51.972;4.624;2022-07-04T01:49:01;102103.34;;;12.37;100.00
35151;BME280;55720;51.972;4.624;2022-07-04T01:51:27;102116.34;;;12.45;100.00
35151;BME280;55720;51.972;4.624;2022-07-04T01:53:52;102128.53;;;12.44;100.00
35151;BME280;55720;51.972;4.624;2022-07-04T01:56:17;102142.66;;;12.51;100.00
35151;BME280;55720;51.972;4.624;2022-07-04T01:58:43;102150.47;;;12.57;100.00
35151;BME280;55720;51.972;4.624;2022-07-04T02:01:08;102159.50;;;12.49;100.00
35151;BME280;55720;51.972;4.624;2022-07-04T02:03:52;102157.94;;;12.57;100.00
35151;BME280;55720;51.972;4.624;2022-07-04T02:06:17;101814.38;;;12.66;100.00
35151;BME280;55720;51.972;4.624;2022-07-04T02:08:43;101753.28;;;12.64;100.00
35151;BME280;55720;51.972;4.624;2022-07-04T02:11:27;101737.41;;;12.69;100.00
35151;BME280;55720;51.972;4.624;2022-07-04T02:13:52;101725.22;;;12.70;100.00
35151;BME280;55720;51.972;4.624;2022-07-04T02:16:17;101730.88;;;12.74;100.00
35151;BME280;55720;51.972;4.624;2022-07-04T02:18:43;101733.50;;;12.79;100.00
35151;BME280;55720;51.972;4.624;2022-07-04T02:21:08;101736.88;;;12.84;100.00
35151;BME280;55720;51.972;4.624;2022-07-04T02:23:33;101739.47;;;12.81;100.00
35151;BME280;55720;51.972;4.624;2022-07-04T02:25:59;101743.03;;;12.81;100.00
35151;BME280;55720;51.972;4.624;2022-07-04T02:28:24;101750.03;;;12.79;100.00
35151;BME280;55720;51.972;4.624;2022-07-04T02:30:50;101748.09;;;12.79;100.00
35151;BME280;55720;51.972;4.624;2022-07-04T02:33:15;101745.66;;;12.78;100.00
35151;BME280;55720;51.972;4.624;2022-07-04T02:35:40;101754.25;;;12.76;100.00
35151;BME280;55720;51.972;4.624;2022-07-04T02:38:06;101761.06;;;12.79;100.00
35151;BME280;55720;51.972;4.624;2022-07-04T02:40:31;101774.00;;;12.78;100.00
35151;BME280;55720;51.972;4.624;2022-07-04T02:42:56;101775.00;;;12.91;100.00
35151;BME280;55720;51.972;4.624;2022-07-04T02:45:22;101786.50;;;12.93;100.00
35151;BME280;55720;51.972;4.624;2022-07-04T02:47:47;101792.34;;;13.00;100.00
35151;BME280;55720;51.972;4.624;2022-07-04T02:50:12;101786.16;;;13.03;100.00
35151;BME280;55720;51.972;4.624;2022-07-04T02:52:38;101788.25;;;13.06;100.00
35151;BME280;55720;51.972;4.624;2022-07-04T02:55:03;101808.38;;;13.07;100.00
35151;BME280;55720;51.972;4.624;2022-07-04T02:57:29;101817.34;;;13.12;100.00
35151;BME280;55720;51.972;4.624;2022-07-04T02:59:54;101817.81;;;13.14;100.00
35151;BME280;55720;51.972;4.624;2022-07-04T03:02:19;101824.78;;;13.29;100.00
35151;BME280;55720;51.972;4.624;2022-07-04T03:04:45;101835.34;;;13.27;100.00
35151;BME280;55720;51.972;4.624;2022-07-04T03:07:10;101836.13;;;13.36;100.00
35151;BME280;55720;51.972;4.624;2022-07-04T03:09:35;101850.06;;;13.40;100.00
35151;BME280;55720;51.972;4.624;2022-07-04T03:12:01;101860.13;;;13.44;100.00
35151;BME280;55720;51.972;4.624;2022-07-04T03:14:26;101857.53;;;13.48;100.00
35151;BME280;55720;51.972;4.624;2022-07-04T03:16:52;101867.44;;;13.49;100.00
35151;BME280;55720;51.972;4.624;2022-07-04T03:19:17;101862.38;;;13.42;100.00
35151;BME280;55720;51.972;4.624;2022-07-04T03:21:43;101868.91;;;13.38;100.00
35151;BME280;55720;51.972;4.624;2022-07-04T03:24:08;101874.41;;;13.38;100.00
35151;BME280;55720;51.972;4.624;2022-07-04T03:26:34;101881.88;;;13.37;100.00
35151;BME280;55720;51.972;4.624;2022-07-04T03:29:00;101883.47;;;13.47;100.00
35151;BME280;55720;51.972;4.624;2022-07-04T03:31:27;101891.59;;;13.52;100.00
35151;BME280;55720;51.972;4.624;2022-07-04T03:33:54;101893.56;;;13.51;100.00
35151;BME280;55720;51.972;4.624;2022-07-04T03:36:19;101899.22;;;13.55;100.00
35151;BME280;55720;51.972;4.624;2022-07-04T03:38:45;101906.34;;;13.64;100.00
35151;BME280;55720;51.972;4.624;2022-07-04T03:41:11;101915.94;;;13.67;100.00
35151;BME280;55720;51.972;4.624;2022-07-04T03:43:36;101914.47;;;13.69;100.00
35151;BME280;55720;51.972;4.624;2022-07-04T03:46:02;101907.63;;;13.75;100.00
35151;BME280;55720;51.972;4.624;2022-07-04T03:48:27;101914.63;;;13.82;100.00
35151;BME280;55720;51.972;4.624;2022-07-04T03:50:53;101927.72;;;13.93;100.00
35151;BME280;55720;51.972;4.624;2022-07-04T03:53:18;101935.81;;;14.07;100.00
35151;BME280;55720;51.972;4.624;2022-07-04T03:55:45;101948.91;;;14.27;100.00
35151;BME280;55720;51.972;4.624;2022-07-04T03:58:10;101957.88;;;14.62;100.00
35151;BME280;55720;51.972;4.624;2022-07-04T04:00:36;101973.44;;;15.04;100.00
35151;BME280;55720;51.972;4.624;2022-07-04T04:03:01;101991.31;;;15.57;100.00
35151;BME280;55720;51.972;4.624;2022-07-04T04:05:27;102009.34;;;15.84;100.00
35151;BME280;55720;51.972;4.624;2022-07-04T04:08:02;102006.09;;;15.61;100.00
35151;BME280;55720;51.972;4.624;2022-07-04T04:10:29;102018.19;;;15.56;100.00
35151;BME280;55720;51.972;4.624;2022-07-04T04:12:56;102034.22;;;15.42;100.00
35151;BME280;55720;51.972;4.624;2022-07-04T04:15:22;102055.75;;;15.37;100.00
35151;BME280;55720;51.972;4.624;2022-07-04T04:17:47;102071.88;;;15.35;100.00
35151;BME280;55720;51.972;4.624;2022-07-04T04:20:13;102084.44;;;15.32;100.00
35151;BME280;55720;51.972;4.624;2022-07-04T04:22:38;102103.66;;;15.28;100.00
35151;BME280;55720;51.972;4.624;2022-07-04T04:25:04;102126.59;;;15.29;100.00
35151;BME280;55720;51.972;4.624;2022-07-04T04:27:29;102162.53;;;15.75;100.00
35151;BME280;55720;51.972;4.624;2022-07-04T04:29:55;102214.81;;;16.48;100.00
35151;BME280;55720;51.972;4.624;2022-07-04T04:32:20;102317.34;;;17.31;100.00
35151;BME280;55720;51.972;4.624;2022-07-04T04:34:46;102450.38;;;18.34;100.00
35151;BME280;55720;51.972;4.624;2022-07-04T04:37:12;102510.66;;;19.51;100.00
35151;BME280;55720;51.972;4.624;2022-07-04T04:39:37;102457.88;;;20.61;100.00
35151;BME280;55720;51.972;4.624;2022-07-04T04:42:04;102377.75;;;21.54;100.00
35151;BME280;55720;51.972;4.624;2022-07-04T04:44:29;102239.75;;;22.67;100.00
35151;BME280;55720;51.972;4.624;2022-07-04T04:46:54;102043.72;;;23.69;100.00
35151;BME280;55720;51.972;4.624;2022-07-04T04:49:20;101736.28;;;24.74;100.00
35151;BME280;55720;51.972;4.624;2022-07-04T04:51:45;101512.25;;;24.37;100.00
35151;BME280;55720;51.972;4.624;2022-07-04T04:54:11;101531.84;;;23.12;100.00
35151;BME280;55720;51.972;4.624;2022-07-04T04:56:36;101569.00;;;23.79;100.00
35151;BME280;55720;51.972;4.624;2022-07-04T04:59:01;101588.59;;;24.80;100.00
35151;BME280;55720;51.972;4.624;2022-07-04T05:01:27;101611.16;;;26.07;100.00
35151;BME280;55720;51.972;4.624;2022-07-04T05:03:52;101703.53;;;27.40;100.00
35151;BME280;55720;51.972;4.624;2022-07-04T05:06:18;101991.72;;;25.66;100.00
35151;BME280;55720;51.972;4.624;2022-07-04T05:08:43;102093.09;;;26.42;100.00
35151;BME280;55720;51.972;4.624;2022-07-04T05:11:09;102137.59;;;25.36;100.00
35151;BME280;55720;51.972;4.624;2022-07-04T05:13:34;102165.13;;;24.49;100.00
35151;BME280;55720;51.972;4.624;2022-07-04T05:16:00;102169.03;;;24.20;100.00
35151;BME280;55720;51.972;4.624;2022-07-04T05:18:25;102180.56;;;22.09;100.00
35151;BME280;55720;51.972;4.624;2022-07-04T05:20:50;102167.59;;;20.57;100.00
35151;BME280;55720;51.972;4.624;2022-07-04T05:23:16;102102.25;;;19.66;100.00
35151;BME280;55720;51.972;4.624;2022-07-04T05:25:41;102038.25;;;19.70;100.00
35151;BME280;55720;51.972;4.624;2022-07-04T05:28:06;101947.22;;;19.96;100.00
35151;BME280;55720;51.972;4.624;2022-07-04T05:30:32;101877.38;;;20.12;100.00
35151;BME280;55720;51.972;4.624;2022-07-04T05:32:57;101852.84;;;19.98;100.00
35151;BME280;55720;51.972;4.624;2022-07-04T05:35:23;101829.53;;;22.36;100.00
35151;BME280;55720;51.972;4.624;2022-07-04T05:37:49;101826.16;;;24.71;100.00
35151;BME280;55720;51.972;4.624;2022-07-04T05:40:14;101870.25;;;27.76;100.00
35151;BME280;55720;51.972;4.624;2022-07-04T05:42:40;102138.19;;;29.61;100.00
35151;BME280;55720;51.972;4.624;2022-07-04T05:45:05;102188.19;;;31.22;100.00
35151;BME280;55720;51.972;4.624;2022-07-04T05:47:32;102169.38;;;30.96;100.00
35151;BME280;55720;51.972;4.624;2022-07-04T05:49:58;102147.91;;;32.04;100.00
35151;BME280;55720;51.972;4.624;2022-07-04T05:52:25;102124.94;;;32.53;100.00
35151;BME280;55720;51.972;4.624;2022-07-04T05:54:50;102134.88;;;31.91;100.00
35151;BME280;55720;51.972;4.624;2022-07-04T05:57:16;102130.69;;;31.83;100.00
35151;BME280;55720;51.972;4.624;2022-07-04T05:59:41;102139.59;;;30.32;100.00
35151;BME280;55720;51.972;4.624;2022-07-04T06:02:07;102166.38;;;28.65;100.00
35151;BME280;55720;51.972;4.624;2022-07-04T06:04:32;102167.09;;;29.72;100.00
35151;BME280;55720;51.972;4.624;2022-07-04T06:06:57;102139.38;;;31.14;100.00
35151;BME280;55720;51.972;4.624;2022-07-04T06:09:23;102120.69;;;32.74;100.00
35151;BME280;55720;51.972;4.624;2022-07-04T06:11:48;102096.69;;;33.90;94.21
35151;BME280;55720;51.972;4.624;2022-07-04T06:14:14;102081.19;;;34.13;84.41
35151;BME280;55720;51.972;4.624;2022-07-04T06:16:39;102059.75;;;35.65;74.09
35151;BME280;55720;51.972;4.624;2022-07-04T06:19:05;102039.47;;;36.65;67.01
35151;BME280;55720;51.972;4.624;2022-07-04T06:21:30;102031.94;;;37.62;59.14
35151;BME280;55720;51.972;4.624;2022-07-04T06:23:55;102011.91;;;38.76;55.27
35151;BME280;55720;51.972;4.624;2022-07-04T06:26:22;102007.63;;;38.86;49.68
35151;BME280;55720;51.972;4.624;2022-07-04T06:28:48;102001.38;;;38.87;47.58
35151;BME280;55720;51.972;4.624;2022-07-04T06:31:13;102024.81;;;37.87;48.08
35151;BME280;55720;51.972;4.624;2022-07-04T06:33:39;102010.50;;;39.06;46.37
35151;BME280;55720;51.972;4.624;2022-07-04T06:36:23;102037.53;;;35.78;45.36
35151;BME280;55720;51.972;4.624;2022-07-04T06:38:49;102070.38;;;33.86;53.38
35151;BME280;55720;51.972;4.624;2022-07-04T06:41:15;102078.28;;;34.26;56.70
35151;BME280;55720;51.972;4.624;2022-07-04T06:43:40;102049.59;;;35.73;52.53
35151;BME280;55720;51.972;4.624;2022-07-04T06:46:05;102051.19;;;35.55;51.52
35151;BME280;55720;51.972;4.624;2022-07-04T06:48:31;102039.69;;;36.10;49.50
35151;BME280;55720;51.972;4.624;2022-07-04T06:50:56;102051.03;;;35.77;49.12
35151;BME280;55720;51.972;4.624;2022-07-04T06:53:21;102057.19;;;35.21;50.72
35151;BME280;55720;51.972;4.624;2022-07-04T06:55:47;102048.22;;;36.19;48.86
35151;BME280;55720;51.972;4.624;2022-07-04T06:58:13;102045.28;;;35.95;47.37
35151;BME280;55720;51.972;4.624;2022-07-04T07:00:39;102067.38;;;35.22;48.94
35151;BME280;55720;51.972;4.624;2022-07-04T07:03:06;102050.22;;;35.77;47.30
35151;BME280;55720;51.972;4.624;2022-07-04T07:05:32;102062.34;;;34.86;47.56
35151;BME280;55720;51.972;4.624;2022-07-04T07:07:58;102062.41;;;35.04;47.35
35151;BME280;55720;51.972;4.624;2022-07-04T07:10:23;102070.22;;;34.64;49.46
35151;BME280;55720;51.972;4.624;2022-07-04T07:12:48;102052.84;;;36.59;47.78
35151;BME280;55720;51.972;4.624;2022-07-04T07:15:14;102046.44;;;37.20;46.93
35151;BME280;55720;51.972;4.624;2022-07-04T07:17:42;102028.16;;;37.71;43.41
35151;BME280;55720;51.972;4.624;2022-07-04T07:20:08;102059.03;;;34.88;44.18
35151;BME280;55720;51.972;4.624;2022-07-04T07:22:33;102086.84;;;34.04;51.19
35151;BME280;55720;51.972;4.624;2022-07-04T07:24:59;102082.19;;;34.19;50.01
35151;BME280;55720;51.972;4.624;2022-07-04T07:27:24;102067.06;;;35.47;48.82
35151;BME280;55720;51.972;4.624;2022-07-04T07:29:49;102056.66;;;36.88;46.84
35151;BME280;55720;51.972;4.624;2022-07-04T07:32:15;102067.94;;;35.08;47.06
35151;BME280;55720;51.972;4.624;2022-07-04T07:34:40;102057.94;;;36.64;46.17
35151;BME280;55720;51.972;4.624;2022-07-04T07:37:06;102052.16;;;36.31;44.29
35151;BME280;55720;51.972;4.624;2022-07-04T07:39:32;102047.66;;;36.81;44.75
35151;BME280;55720;51.972;4.624;2022-07-04T07:41:57;102035.72;;;38.12;41.60
35151;BME280;55720;51.972;4.624;2022-07-04T07:44:22;102046.47;;;37.35;43.18
35151;BME280;55720;51.972;4.624;2022-07-04T07:46:48;102039.50;;;37.12;40.70
35151;BME280;55720;51.972;4.624;2022-07-04T07:49:13;102042.38;;;36.79;40.71
35151;BME280;55720;51.972;4.624;2022-07-04T07:51:38;102043.88;;;36.98;39.94
35151;BME280;55720;51.972;4.624;2022-07-04T07:54:04;102064.38;;;36.73;42.62
35151;BME280;55720;51.972;4.624;2022-07-04T07:56:29;102055.66;;;37.77;41.76
35151;BME280;55720;51.972;4.624;2022-07-04T07:58:55;102057.94;;;36.55;41.32
35151;BME280;55720;51.972;4.624;2022-07-04T08:01:20;102069.56;;;35.91;42.04
35151;BME280;55720;51.972;4.624;2022-07-04T08:03:46;102073.56;;;35.84;42.47
35151;BME280;55720;51.972;4.624;2022-07-04T08:06:31;102072.13;;;35.80;42.15
35151;BME280;55720;51.972;4.624;2022-07-04T08:08:56;102074.16;;;36.07;41.98
35151;BME280;55720;51.972;4.624;2022-07-04T08:11:21;102079.56;;;35.50;42.77
35151;BME280;55720;51.972;4.624;2022-07-04T08:13:47;102080.22;;;35.54;41.98
35151;BME280;55720;51.972;4.624;2022-07-04T08:16:12;102076.34;;;36.21;42.75
35151;BME280;55720;51.972;4.624;2022-07-04T08:18:38;102097.66;;;33.53;43.16
35151;BME280;55720;51.972;4.624;2022-07-04T08:21:04;102100.38;;;33.56;44.68
35151;BME280;55720;51.972;4.624;2022-07-04T08:23:31;102144.63;;;30.44;49.46
35151;BME280;55720;51.972;4.624;2022-07-04T08:25:57;102175.88;;;28.17;59.43
35151;BME280;55720;51.972;4.624;2022-07-04T08:28:23;102193.06;;;27.45;75.68
35151;BME280;55720;51.972;4.624;2022-07-04T08:30:48;102186.56;;;27.96;76.69
35151;BME280;55720;51.972;4.624;2022-07-04T08:33:13;102203.22;;;26.73;85.28
35151;BME280;55720;51.972;4.624;2022-07-04T08:35:39;102224.41;;;25.62;100.00
35151;BME280;55720;51.972;4.624;2022-07-04T08:38:04;102245.84;;;26.85;100.00
35151;BME280;55720;51.972;4.624;2022-07-04T08:40:30;102234.28;;;27.83;100.00
35151;BME280;55720;51.972;4.624;2022-07-04T08:42:57;102231.00;;;26.67;100.00
35151;BME280;55720;51.972;4.624;2022-07-04T08:45:27;102251.72;;;25.65;100.00
35151;BME280;55720;51.972;4.624;2022-07-04T08:48:01;102244.50;;;25.64;100.00
35151;BME280;55720;51.972;4.624;2022-07-04T08:50:32;102256.88;;;25.14;100.00
35151;BME280;55720;51.972;4.624;2022-07-04T08:53:15;102257.88;;;24.60;100.00
35151;BME280;55720;51.972;4.624;2022-07-04T08:55:45;102263.09;;;24.68;100.00
35151;BME280;55720;51.972;4.624;2022-07-04T08:58:29;102252.50;;;25.44;100.00
35151;BME280;55720;51.972;4.624;2022-07-04T09:03:25;102270.63;;;24.46;100.00
35151;BME280;55720;51.972;4.624;2022-07-04T09:05:51;102285.84;;;23.87;100.00
35151;BME280;55720;51.972;4.624;2022-07-04T09:08:17;102290.19;;;23.41;100.00
35151;BME280;55720;51.972;4.624;2022-07-04T09:10:43;102297.72;;;22.96;100.00
35151;BME280;55720;51.972;4.624;2022-07-04T09:13:10;102305.94;;;22.82;100.00
35151;BME280;55720;51.972;4.624;2022-07-04T09:15:36;102303.16;;;22.82;100.00
35151;BME280;55720;51.972;4.624;2022-07-04T09:18:02;102303.19;;;22.86;100.00
35151;BME280;55720;51.972;4.624;2022-07-04T09:20:30;102304.56;;;23.02;100.00
35151;BME280;55720;51.972;4.624;2022-07-04T09:22:56;102302.28;;;23.89;100.00
35151;BME280;55720;51.972;4.624;2022-07-04T09:25:23;102261.63;;;27.89;100.00
35151;BME280;55720;51.972;4.624;2022-07-04T09:27:52;102205.31;;;30.47;100.00
35151;BME280;55720;51.972;4.624;2022-07-04T09:30:27;102212.97;;;28.83;93.26
35151;BME280;55720;51.972;4.624;2022-07-04T09:32:57;102231.56;;;27.72;100.00
35151;BME280;55720;51.972;4.624;2022-07-04T09:35:27;102227.19;;;28.05;100.00
35151;BME280;55720;51.972;4.624;2022-07-04T09:37:58;102200.22;;;30.38;95.08
35151;BME280;55720;51.972;4.624;2022-07-04T09:40:28;102207.47;;;29.76;85.51
35151;BME280;55720;51.972;4.624;2022-07-04T09:42:55;102203.75;;;28.79;86.43
35151;BME280;55720;51.972;4.624;2022-07-04T09:45:21;102222.13;;;26.76;97.56
35151;BME280;55720;51.972;4.624;2022-07-04T09:47:50;102218.34;;;28.03;98.44
35151;BME280;55720;51.972;4.624;2022-07-04T09:50:18;102228.44;;;27.01;98.68
35151;BME280;55720;51.972;4.624;2022-07-04T09:55:26;102246.44;;;26.17;100.00
35151;BME280;55720;51.972;4.624;2022-07-04T09:57:54;102221.75;;;27.36;94.72
35151;BME280;55720;51.972;4.624;2022-07-04T10:00:26;102230.44;;;25.82;90.92
35151;BME280;55720;51.972;4.624;2022-07-04T10:02:53;102230.19;;;26.70;97.99
35151;BME280;55720;51.972;4.624;2022-07-04T10:05:25;102217.00;;;27.26;92.26
35151;BME280;55720;51.972;4.624;2022-07-04T10:07:51;102229.09;;;26.43;96.62
35151;BME280;55720;51.972;4.624;2022-07-04T10:10:34;102236.72;;;26.46;100.00
35151;BME280;55720;51.972;4.624;2022-07-04T10:13:07;102204.97;;;28.11;93.58
35151;BME280;55720;51.972;4.624;2022-07-04T10:15:35;102206.59;;;27.71;87.40
35151;BME280;55720;51.972;4.624;2022-07-04T10:18:03;102193.94;;;28.57;82.93
35151;BME280;55720;51.972;4.624;2022-07-04T10:20:29;102210.19;;;27.71;85.19
35151;BME280;55720;51.972;4.624;2022-07-04T10:22:55;102221.41;;;26.54;90.35
35151;BME280;55720;51.972;4.624;2022-07-04T10:25:20;102224.94;;;26.76;96.36
35151;BME280;55720;51.972;4.624;2022-07-04T10:27:45;102212.63;;;28.14;91.47
35151;BME280;55720;51.972;4.624;2022-07-04T10:30:15;102207.09;;;28.71;87.16
35151;BME280;55720;51.972;4.624;2022-07-04T10:32:44;102193.63;;;28.18;81.80
35151;BME280;55720;51.972;4.624;2022-07-04T10:35:15;102210.06;;;27.37;83.39
35151;BME280;55720;51.972;4.624;2022-07-04T10:48:52;102251.28;;;25.45;100.00
35151;BME280;55720;51.972;4.624;2022-07-04T10:51:46;102245.66;;;25.99;100.00
35151;BME280;55720;51.972;4.624;2022-07-04T10:54:19;102233.56;;;26.16;100.00
35151;BME280;55720;51.972;4.624;2022-07-04T11:07:14;102229.19;;;26.08;100.00
35151;BME280;55720;51.972;4.624;2022-07-04T11:09:40;102240.06;;;25.70;100.00
35151;BME280;55720;51.972;4.624;2022-07-04T11:12:06;102242.25;;;24.69;100.00
35151;BME280;55720;51.972;4.624;2022-07-04T11:17:06;102267.38;;;23.83;100.00
35151;BME280;55720;51.972;4.624;2022-07-04T11:19:32;102266.81;;;24.14;100.00
35151;BME280;55720;51.972;4.624;2022-07-04T11:21:58;102256.41;;;24.90;100.00
35151;BME280;55720;51.972;4.624;2022-07-04T11:24:24;102246.59;;;24.53;100.00
35151;BME280;55720;51.972;4.624;2022-07-04T11:26:50;102250.53;;;24.41;100.00
35151;BME280;55720;51.972;4.624;2022-07-04T11:29:16;102252.38;;;24.91;100.00
35151;BME280;55720;51.972;4.624;2022-07-04T11:31:47;102242.03;;;25.24;100.00
35151;BME280;55720;51.972;4.624;2022-07-04T11:34:13;102229.63;;;25.71;100.00
35151;BME280;55720;51.972;4.624;2022-07-04T11:36:44;102237.22;;;25.28;100.00
35151;BME280;55720;51.972;4.624;2022-07-04T11:39:18;102240.41;;;25.12;100.00
35151;BME280;55720;51.972;4.624;2022-07-04T11:41:51;102236.00;;;25.36;100.00
35151;BME280;55720;51.972;4.624;2022-07-04T11:44:40;102225.16;;;25.38;100.00
35151;BME280;55720;51.972;4.624;2022-07-04T11:47:32;102215.94;;;25.44;100.00
35151;BME280;55720;51.972;4.624;2022-07-04T11:49:59;102222.81;;;25.68;100.00
35151;BME280;55720;51.972;4.624;2022-07-04T11:52:27;102222.72;;;25.12;100.00
35151;BME280;55720;51.972;4.624;2022-07-04T11:54:53;102223.47;;;24.87;100.00
35151;BME280;55720;51.972;4.624;2022-07-04T11:59:59;102205.50;;;25.70;100.00
35151;BME280;55720;51.972;4.624;2022-07-04T12:02:27;102217.53;;;25.45;100.00
35151;BME280;55720;51.972;4.624;2022-07-04T12:04:52;102207.94;;;25.54;100.00
35151;BME280;55720;51.972;4.624;2022-07-04T12:07:21;102206.69;;;25.47;100.00
35151;BME280;55720;51.972;4.624;2022-07-04T12:09:47;102198.25;;;25.86;100.00
35151;BME280;55720;51.972;4.624;2022-07-04T12:12:14;102181.38;;;25.76;100.00
35151;BME280;55720;51.972;4.624;2022-07-04T12:15:02;102186.53;;;26.13;100.00
35151;BME280;55720;51.972;4.624;2022-07-04T12:17:34;102181.81;;;25.67;98.94
35151;BME280;55720;51.972;4.624;2022-07-04T12:20:02;102185.81;;;25.66;100.00
35151;BME280;55720;51.972;4.624;2022-07-04T12:22:32;102189.41;;;25.21;100.00
35151;BME280;55720;51.972;4.624;2022-07-04T12:24:58;102180.63;;;25.65;94.71
35151;BME280;55720;51.972;4.624;2022-07-04T12:27:25;102169.34;;;25.61;91.52
35151;BME280;55720;51.972;4.624;2022-07-04T12:29:51;102179.81;;;25.64;96.59
35151;BME280;55720;51.972;4.624;2022-07-04T12:32:18;102189.41;;;25.88;100.00
35151;BME280;55720;51.972;4.624;2022-07-04T12:34:44;102176.94;;;25.85;100.00
35151;BME280;55720;51.972;4.624;2022-07-04T12:37:12;102177.31;;;26.02;100.00
35151;BME280;55720;51.972;4.624;2022-07-04T12:39:40;102183.81;;;25.42;95.88
35151;BME280;55720;51.972;4.624;2022-07-04T12:44:37;102184.00;;;24.52;100.00
35151;BME280;55720;51.972;4.624;2022-07-04T12:47:04;102188.56;;;24.85;100.00
35151;BME280;55720;51.972;4.624;2022-07-04T12:49:31;102187.28;;;24.72;100.00
35151;BME280;55720;51.972;4.624;2022-07-04T12:52:08;102171.19;;;24.55;100.00
35151;BME280;55720;51.972;4.624;2022-07-04T12:54:35;102174.41;;;24.67;100.00
35151;BME280;55720;51.972;4.624;2022-07-04T12:57:10;102174.16;;;25.50;100.00
35151;BME280;55720;51.972;4.624;2022-07-04T12:59:37;102173.34;;;25.81;100.00
35151;BME280;55720;51.972;4.624;2022-07-04T13:02:03;102162.78;;;26.28;100.00
35151;BME280;55720;51.972;4.624;2022-07-04T13:04:28;102155.31;;;26.73;100.00
35151;BME280;55720;51.972;4.624;2022-07-04T13:06:56;102154.38;;;26.03;96.18
35151;BME280;55720;51.972;4.624;2022-07-04T13:09:22;102158.88;;;25.40;97.99
35151;BME280;55720;51.972;4.624;2022-07-04T13:11:47;102159.31;;;25.53;100.00
35151;BME280;55720;51.972;4.624;2022-07-04T13:14:32;102141.63;;;25.53;96.45
35151;BME280;55720;51.972;4.624;2022-07-04T13:16:57;102162.91;;;25.50;97.90